SBCZ/CZS METAR and TAF weather

Enter ICAO airport designator
Station Type Date Time Source
SBCZ METAR 2020/06/04 22:00 UTC NOAA

SBCZ 042200Z 06005KT 9999 BKN030 26/25 Q1012


Station Type Date Time Source
SBCZ Decoded METAR 2020/06/04 22:00 UTC NOAA

Cruzeiro Do Sul, Brazil (SBCZ) 07-38S 072-40W
Jun 04, 2020 - 06:00 PM EDT / 2020.06.04 2200 UTC
Wind: from the ENE (060 degrees) at 6 MPH (5 KT):0
Visibility: greater than 7 mile(s):0
Sky conditions: mostly cloudy
Temperature: 78 F (26 C)
Dew Point: 77 F (25 C)
Relative Humidity: 94%
Pressure (altimeter): 29.88 in. Hg (1012 hPa)
ob: SBCZ 042200Z 06005KT 9999 BKN030 26/25 Q1012
cycle: 22

Station Type Date Time Source
SBCZ TAF 2019/09/19 12:12 UTC NOAA

TAF SBCZ 190900Z 1912/2012 27005KT 9999 FEW020 FEW025TCU TX34/1919Z TN23/2006Z PROB30
TEMPO 1912/1916 4000 TSRA BKN020 FEW025CB
BECMG 1916/1918 27005KT
BECMG 1923/2001 00000KT CAVOK PROB30 2006/2012 4000 BR
RMK PGZ

Example: see airport list